Toulon, Nevada
Current Conditions -  °F | °C
As of 9:53 AM on Wednesday 26 Nov 2014 (Local Time) from KLOL Reporting Station
Clear Clear  
Wind Chill:   Ceiling: Unl
Heat Index:   Visibility: 10mi
Dew Point: -4°   Wind: 3mph
Humidity: 53%   Direction: 300°WNW
Pressure: 30.44"   Gusts: NA
Location:  40.3545°N, 118.628°W
Report Text: KLOL 261753Z AUTO 30003KT 10SM CLR 04/M04 A3044 RMK AO2 SLP328 T00441044 10044 21083 51001
Loading
Personal Weather Stations






























Interactive Weather Map New forecast layout! Learn more

10-Day Weather Forecast

Advertisements
Track Severe Weather on mobile